ENAT/ALF METAR and TAF weather

Enter ICAO airport designator
Station Type Date Time Source
ENAT METAR 2019/04/18 19:50 UTC NOAA

ENAT 181950Z 00000KT CAVOK 02/M03 Q1028 RMK WIND 700FT 34003KT


Station Type Date Time Source
ENAT Decoded METAR 2019/04/18 19:50 UTC NOAA

Alta Lufthavn, Norway (ENAT) 69-59N 023-22E 3M
Apr 18, 2019 - 03:50 PM EDT / 2019.04.18 1950 UTC
Wind: Calm:0
Visibility: greater than 7 mile(s):0
Temperature: 35 F (2 C)
Dew Point: 26 F (-3 C)
Relative Humidity: 69%
Pressure (altimeter): 30.36 in. Hg (1028 hPa)
ob: ENAT 181950Z 00000KT CAVOK 02/M03 Q1028 RMK WIND 700FT 34003KT
cycle: 20

Station Type Date Time Source
ENAT TAF 2008/11/30 23:00 UTC NOAA

TAF TAF ENAT 302300Z 3023/0102 22005KT 7000 -SN FEW008 BKN020
TEMPO 3023/0102 3000 -SN VV012

Example: see airport list